createdAt,value
2024-01-28T00:01:28.259Z,3.00
2024-01-28T00:03:55.697Z,2.90
2024-01-28T00:06:23.238Z,2.90
2024-01-28T00:08:50.416Z,2.90
2024-01-28T00:11:17.554Z,2.90
2024-01-28T00:13:44.624Z,3.00
2024-01-28T00:16:15.864Z,2.90
2024-01-28T00:18:43.395Z,2.90
2024-01-28T00:21:10.754Z,2.90
2024-01-28T00:23:37.940Z,2.90
2024-01-28T00:26:05.558Z,2.90
2024-01-28T00:28:32.812Z,2.90
2024-01-28T00:30:59.911Z,2.90
2024-01-28T00:33:29.071Z,2.90
2024-01-28T00:35:57.847Z,2.90
2024-01-28T00:38:25.232Z,2.90
2024-01-28T00:40:52.405Z,2.90
2024-01-28T00:43:19.900Z,2.90
2024-01-28T00:45:47.070Z,2.90
2024-01-28T00:48:15.174Z,2.90
2024-01-28T00:50:42.650Z,2.90
2024-01-28T00:53:10.247Z,2.90
2024-01-28T00:55:37.294Z,2.90
2024-01-28T00:58:04.668Z,2.90
2024-01-28T01:00:32.677Z,3.00
2024-01-28T01:03:00.092Z,3.00
2024-01-28T01:05:27.248Z,2.90
2024-01-28T01:07:54.297Z,2.90
2024-01-28T01:10:27.256Z,2.90
2024-01-28T01:12:54.437Z,2.90
2024-01-28T01:15:22.206Z,2.90
2024-01-28T01:17:51.068Z,2.80
2024-01-28T01:20:21.366Z,2.80
2024-01-28T01:22:48.486Z,2.80
2024-01-28T01:25:16.333Z,2.70
2024-01-28T01:27:44.109Z,2.70
2024-01-28T01:30:11.908Z,2.70
2024-01-28T01:32:41.977Z,2.70
2024-01-28T01:35:10.170Z,2.60
2024-01-28T01:37:37.556Z,2.60
2024-01-28T01:40:05.576Z,2.60
2024-01-28T01:42:32.900Z,2.60
2024-01-28T01:45:00.212Z,2.60
2024-01-28T01:47:28.030Z,2.60
2024-01-28T01:49:56.072Z,2.60
2024-01-28T01:52:23.389Z,2.60
2024-01-28T01:54:52.548Z,2.60
2024-01-28T01:57:20.259Z,2.60
2024-01-28T01:59:47.769Z,2.50
2024-01-28T02:02:15.508Z,2.50
2024-01-28T02:04:42.900Z,2.60
2024-01-28T02:07:10.009Z,2.60
2024-01-28T02:09:37.295Z,2.50
2024-01-28T02:12:04.704Z,2.50
2024-01-28T02:14:33.337Z,2.50
2024-01-28T02:17:00.894Z,2.50
2024-01-28T02:19:29.021Z,2.50
2024-01-28T02:21:56.564Z,2.50
2024-01-28T02:24:23.682Z,2.50
2024-01-28T02:26:51.047Z,2.50
2024-01-28T02:29:18.862Z,2.50
2024-01-28T02:31:49.012Z,2.50
2024-01-28T02:34:19.588Z,2.40
2024-01-28T02:36:47.200Z,2.40
2024-01-28T02:39:15.341Z,2.40
2024-01-28T02:41:48.059Z,2.40
2024-01-28T02:44:15.493Z,2.40
2024-01-28T02:46:42.562Z,2.40
2024-01-28T02:49:13.084Z,2.40
2024-01-28T02:51:40.571Z,2.40
2024-01-28T02:54:07.818Z,2.40
2024-01-28T02:56:35.093Z,2.40
2024-01-28T02:59:03.207Z,2.40
2024-01-28T03:01:30.908Z,2.40
2024-01-28T03:03:58.088Z,2.40
2024-01-28T03:06:25.319Z,2.40
2024-01-28T03:08:52.711Z,2.40
2024-01-28T03:11:19.861Z,2.40
2024-01-28T03:13:47.291Z,2.50
2024-01-28T03:16:14.430Z,2.50
2024-01-28T03:18:41.631Z,2.50
2024-01-28T03:21:09.026Z,2.50
2024-01-28T03:23:36.596Z,2.50
2024-01-28T03:26:04.330Z,2.50
2024-01-28T03:28:31.442Z,2.50
2024-01-28T03:30:58.626Z,2.60
2024-01-28T03:33:26.001Z,2.50
2024-01-28T03:35:53.301Z,2.50
2024-01-28T03:38:20.465Z,2.50
2024-01-28T03:40:47.913Z,2.50
2024-01-28T03:43:15.248Z,2.50
2024-01-28T03:45:42.813Z,2.50
2024-01-28T03:48:10.396Z,2.50
2024-01-28T03:50:37.750Z,2.60
2024-01-28T03:53:06.396Z,2.50
2024-01-28T03:55:33.470Z,2.50
2024-01-28T03:58:00.625Z,2.50
2024-01-28T04:00:30.716Z,2.50
2024-01-28T04:02:58.488Z,2.50
2024-01-28T04:05:25.689Z,2.50
2024-01-28T04:07:52.775Z,2.50
2024-01-28T04:10:23.190Z,2.40
2024-01-28T04:12:53.560Z,2.40
2024-01-28T04:26:09.977Z,2.30
2024-01-28T04:28:37.166Z,2.20
2024-01-28T04:31:15.405Z,2.20
2024-01-28T04:33:43.492Z,2.20
2024-01-28T04:36:10.717Z,2.20
2024-01-28T04:38:38.053Z,2.20
2024-01-28T04:41:05.778Z,2.10
2024-01-28T04:43:33.387Z,2.10
2024-01-28T04:46:06.409Z,2.10
2024-01-28T04:48:37.411Z,2.10
2024-01-28T04:51:05.084Z,2.10
2024-01-28T04:53:32.377Z,2.10
2024-01-28T04:55:59.882Z,2.10
2024-01-28T04:58:27.078Z,2.10
2024-01-28T05:00:56.668Z,2.10
2024-01-28T05:03:26.434Z,2.00
2024-01-28T05:05:54.504Z,2.00
2024-01-28T05:08:21.754Z,2.10
2024-01-28T05:10:50.134Z,2.00
2024-01-28T05:13:17.368Z,2.00
2024-01-28T05:18:25.361Z,2.00
2024-01-28T05:20:54.071Z,2.00
2024-01-28T05:23:21.269Z,2.00
2024-01-28T05:25:48.582Z,2.10
2024-01-28T05:28:18.028Z,2.10
2024-01-28T05:30:51.782Z,2.10
2024-01-28T05:33:21.880Z,2.10
2024-01-28T05:35:50.170Z,2.10
2024-01-28T06:05:24.485Z,2.20
2024-01-28T06:07:51.795Z,2.20
2024-01-28T06:10:19.128Z,2.20
2024-01-28T06:12:46.476Z,2.20
2024-01-28T06:15:15.505Z,2.20
2024-01-28T06:17:42.683Z,2.20
2024-01-28T06:20:10.289Z,2.20
2024-01-28T06:22:38.441Z,2.20
2024-01-28T06:25:07.136Z,2.20
2024-01-28T06:27:34.644Z,2.20
2024-01-28T06:30:01.964Z,2.20
2024-01-28T06:32:29.627Z,2.10
2024-01-28T06:34:57.568Z,2.10
2024-01-28T06:37:25.636Z,2.10
2024-01-28T06:39:53.880Z,2.10
2024-01-28T06:42:31.313Z,2.10
2024-01-28T06:44:58.854Z,2.10
2024-01-28T06:47:26.311Z,2.10
2024-01-28T06:49:53.652Z,2.10
2024-01-28T06:52:21.091Z,2.10
2024-01-28T06:54:48.364Z,2.10
2024-01-28T06:57:15.816Z,2.10
2024-01-28T06:59:44.886Z,2.00
2024-01-28T07:02:12.908Z,2.00
2024-01-28T07:04:45.844Z,2.00
2024-01-28T07:07:13.404Z,2.00
2024-01-28T07:09:41.113Z,2.00
2024-01-28T07:12:21.464Z,2.00
2024-01-28T07:14:49.350Z,2.00
2024-01-28T07:17:16.685Z,2.00
2024-01-28T07:19:46.776Z,2.00
2024-01-28T07:22:15.951Z,2.00
2024-01-28T09:24:34.615Z,4.50
2024-01-28T09:27:03.055Z,4.60
2024-01-28T09:29:31.849Z,4.60
2024-01-28T09:32:00.605Z,4.70
2024-01-28T09:34:29.870Z,4.80
2024-01-28T09:36:57.364Z,4.90
2024-01-28T09:39:24.949Z,5.00
2024-01-28T09:42:07.598Z,5.10
2024-01-28T09:44:37.283Z,5.30
2024-01-28T09:47:05.369Z,5.40
2024-01-28T09:49:40.949Z,5.40
2024-01-28T09:52:18.968Z,5.50
2024-01-28T09:57:40.860Z,5.60
2024-01-28T09:57:42.408Z,5.70
2024-01-28T10:00:10.117Z,5.90
2024-01-28T10:02:38.035Z,6.00
2024-01-28T10:05:10.478Z,6.10
2024-01-28T10:07:49.315Z,6.20
2024-01-28T10:10:18.435Z,6.30
2024-01-28T10:12:51.674Z,6.40
2024-01-28T10:15:19.643Z,6.50
2024-01-28T10:17:50.904Z,6.60
2024-01-28T10:20:19.401Z,6.70
2024-01-28T10:22:46.409Z,6.80
2024-01-28T10:25:16.789Z,6.90
2024-01-28T10:27:44.273Z,6.90
2024-01-28T10:30:12.942Z,7.00
2024-01-28T10:32:40.141Z,7.10
2024-01-28T10:35:09.228Z,7.20
2024-01-28T10:37:36.464Z,7.30
2024-01-28T10:41:17.198Z,7.40
2024-01-28T10:43:04.830Z,7.50
2024-01-28T10:45:32.592Z,7.60
2024-01-28T10:48:04.741Z,7.70
2024-01-28T10:50:33.133Z,7.80
2024-01-28T10:53:03.996Z,7.90
2024-01-28T10:55:32.182Z,7.90
2024-01-28T10:58:02.422Z,7.90
2024-01-28T11:00:34.066Z,8.00
2024-01-28T11:03:01.470Z,8.00
2024-01-28T11:05:29.579Z,8.00
2024-01-28T11:08:01.720Z,8.10
2024-01-28T11:10:31.932Z,8.20
2024-01-28T11:12:59.082Z,8.20
2024-01-28T11:15:27.841Z,8.40
2024-01-28T11:17:56.074Z,8.50
2024-01-28T11:20:24.488Z,8.50
2024-01-28T11:22:53.613Z,8.60
2024-01-28T11:25:25.794Z,8.70
2024-01-28T11:27:58.295Z,8.80
2024-01-28T11:30:26.109Z,8.90
2024-01-28T11:32:57.722Z,8.90
2024-01-28T11:35:26.145Z,8.90
2024-01-28T11:37:54.385Z,9.00
2024-01-28T11:40:23.499Z,9.10
2024-01-28T11:42:52.674Z,9.10
2024-01-28T11:45:20.544Z,9.20
2024-01-28T11:47:47.667Z,9.30
2024-01-28T11:50:15.634Z,9.30
2024-01-28T11:52:44.550Z,9.50
2024-01-28T11:55:12.556Z,9.60
2024-01-28T11:57:40.790Z,9.70
2024-01-28T12:00:09.888Z,9.80
2024-01-28T12:02:38.999Z,10.00
2024-01-28T12:05:08.423Z,10.10
2024-01-28T12:07:39.160Z,10.20
2024-01-28T12:10:11.954Z,10.30
2024-01-28T12:12:42.619Z,10.40
2024-01-28T12:15:11.010Z,10.50
2024-01-28T12:17:39.244Z,10.70
2024-01-28T12:20:07.349Z,10.80
2024-01-28T12:22:41.454Z,10.90
2024-01-28T12:25:09.784Z,11.00
2024-01-28T12:27:37.881Z,11.10
2024-01-28T12:30:05.269Z,11.30
2024-01-28T12:32:32.375Z,11.40
2024-01-28T12:35:05.329Z,11.60
2024-01-28T12:37:38.862Z,11.70
2024-01-28T12:40:06.956Z,11.80
2024-01-28T12:42:36.103Z,11.90
2024-01-28T12:45:03.356Z,12.00
2024-01-28T12:47:30.856Z,12.10
2024-01-28T12:49:58.083Z,12.20
2024-01-28T12:52:25.676Z,12.20
2024-01-28T12:54:52.952Z,12.30
2024-01-28T12:57:20.137Z,12.30
2024-01-28T12:59:47.225Z,12.40
2024-01-28T13:02:14.881Z,12.50
2024-01-28T13:04:41.977Z,12.50
2024-01-28T13:07:10.044Z,12.60
2024-01-28T13:09:37.157Z,12.60
2024-01-28T13:12:04.477Z,12.70
2024-01-28T13:14:31.743Z,12.70
2024-01-28T13:16:59.011Z,12.80
2024-01-28T13:19:27.004Z,12.90
2024-01-28T13:21:54.090Z,12.90
2024-01-28T13:24:22.410Z,13.00
2024-01-28T13:26:51.741Z,13.10
2024-01-28T13:29:20.190Z,13.10
2024-01-28T13:31:47.591Z,13.20
2024-01-28T13:34:14.675Z,13.20
2024-01-28T13:36:43.794Z,13.30
2024-01-28T13:39:12.648Z,13.30
2024-01-28T13:41:39.737Z,13.30
2024-01-28T13:44:07.842Z,13.30
2024-01-28T13:46:38.822Z,13.30
2024-01-28T13:49:06.909Z,13.30
2024-01-28T13:51:34.112Z,13.40
2024-01-28T13:54:01.634Z,13.40
2024-01-28T13:56:28.729Z,13.50
2024-01-28T13:58:56.587Z,13.60
2024-01-28T14:01:24.751Z,13.70
2024-01-28T14:03:52.197Z,13.80
2024-01-28T14:06:19.714Z,13.80
2024-01-28T14:08:47.199Z,13.90
2024-01-28T14:11:14.306Z,14.00
2024-01-28T14:13:41.282Z,14.00
2024-01-28T14:16:09.276Z,14.00
2024-01-28T14:18:36.363Z,14.10
2024-01-28T14:21:04.466Z,14.10
2024-01-28T14:23:31.498Z,14.10
2024-01-28T14:25:58.478Z,14.10
2024-01-28T14:28:25.678Z,14.20
2024-01-28T14:30:52.912Z,14.20
2024-01-28T14:33:20.079Z,14.20
2024-01-28T14:35:48.423Z,14.00
2024-01-28T14:38:23.159Z,14.00
2024-01-28T14:40:51.213Z,13.90
2024-01-28T14:43:18.378Z,13.90
2024-01-28T14:45:47.899Z,13.90
2024-01-28T14:48:16.265Z,13.90
2024-01-28T14:50:45.517Z,14.00
2024-01-28T14:53:12.768Z,14.00
2024-01-28T14:55:39.774Z,14.00
2024-01-28T14:58:07.982Z,14.10
2024-01-28T15:00:35.144Z,14.10
2024-01-28T15:03:02.452Z,14.20
2024-01-28T15:05:32.032Z,14.10
2024-01-28T15:07:59.104Z,14.20
2024-01-28T15:10:27.073Z,14.10
2024-01-28T15:12:54.229Z,14.10
2024-01-28T15:15:21.271Z,14.10
2024-01-28T15:17:51.025Z,14.00
2024-01-28T15:20:22.024Z,14.00
2024-01-28T15:22:50.044Z,14.00
2024-01-28T15:25:18.390Z,14.10
2024-01-28T15:27:45.742Z,14.00
2024-01-28T15:30:13.366Z,14.00
2024-01-28T15:32:42.666Z,13.90
2024-01-28T15:35:09.892Z,13.90
2024-01-28T15:37:37.311Z,13.80
2024-01-28T15:40:05.900Z,13.70
2024-01-28T15:42:32.963Z,13.60
2024-01-28T15:45:00.080Z,13.60
2024-01-28T15:47:27.293Z,13.50
2024-01-28T15:49:54.501Z,13.50
2024-01-28T15:52:21.660Z,13.40
2024-01-28T15:54:48.857Z,13.30
2024-01-28T15:57:16.712Z,13.20
2024-01-28T15:59:54.888Z,13.10
2024-01-28T16:02:27.737Z,13.00
2024-01-28T16:04:54.834Z,12.80
2024-01-28T16:07:26.004Z,12.60
2024-01-28T16:09:56.061Z,12.50
2024-01-28T16:12:23.490Z,12.40
2024-01-28T16:14:50.437Z,12.20
2024-01-28T16:17:20.240Z,12.10
2024-01-28T16:19:50.460Z,12.00
2024-01-28T16:25:11.321Z,11.80
2024-01-28T16:28:17.872Z,11.70
2024-01-28T16:30:43.137Z,11.60
2024-01-28T16:33:10.166Z,11.50
2024-01-28T16:35:37.593Z,11.40
2024-01-28T16:38:04.801Z,11.20
2024-01-28T16:40:39.140Z,11.10
2024-01-28T16:43:06.229Z,11.00
2024-01-28T16:45:33.546Z,10.80
2024-01-28T16:48:00.993Z,10.70
2024-01-28T16:50:28.294Z,10.50
2024-01-28T16:52:55.398Z,10.50
2024-01-28T16:55:23.853Z,10.30
2024-01-28T16:57:51.190Z,10.20
2024-01-28T17:00:18.883Z,10.10
2024-01-28T17:02:45.994Z,10.00
2024-01-28T17:05:13.305Z,9.90
2024-01-28T17:07:42.910Z,9.80
2024-01-28T17:10:10.200Z,9.70
2024-01-28T17:12:37.406Z,9.60
2024-01-28T17:15:04.779Z,9.50
2024-01-28T17:17:32.281Z,9.50
2024-01-28T17:19:59.933Z,9.40
2024-01-28T17:22:26.972Z,9.40
2024-01-28T17:24:54.079Z,9.30
2024-01-28T17:27:21.120Z,9.20
2024-01-28T17:29:48.284Z,9.10
2024-01-28T17:32:15.469Z,9.00
2024-01-28T17:34:43.165Z,9.00
2024-01-28T17:37:10.602Z,8.90
2024-01-28T17:39:38.188Z,8.80
2024-01-28T17:42:06.938Z,8.70
2024-01-28T17:44:34.021Z,8.70
2024-01-28T17:47:01.132Z,8.70
2024-01-28T17:49:28.535Z,8.60
2024-01-28T17:51:55.842Z,8.50
2024-01-28T17:54:23.951Z,8.50
2024-01-28T17:56:52.484Z,8.40
2024-01-28T17:59:19.582Z,8.30
2024-01-28T18:01:47.060Z,8.30
2024-01-28T18:04:14.170Z,8.20
2024-01-28T18:06:41.346Z,8.10
2024-01-28T18:09:10.328Z,8.10
2024-01-28T18:11:37.642Z,8.00
2024-01-28T18:14:07.319Z,7.90
2024-01-28T18:16:35.463Z,7.90
2024-01-28T18:19:02.761Z,7.80
2024-01-28T18:21:29.945Z,7.80
2024-01-28T18:23:57.001Z,7.80
2024-01-28T18:26:25.787Z,7.80
2024-01-28T18:28:53.006Z,7.80
2024-01-28T18:31:22.896Z,7.80
2024-01-28T18:33:51.995Z,7.90
2024-01-28T18:36:21.317Z,7.80
2024-01-28T18:38:49.762Z,7.90
2024-01-28T18:41:18.452Z,7.90
2024-01-28T18:43:48.617Z,7.90
2024-01-28T18:46:15.915Z,7.90
2024-01-28T18:48:43.146Z,7.90
2024-01-28T18:51:10.353Z,7.90
2024-01-28T18:53:37.491Z,7.90
2024-01-28T18:56:04.693Z,7.90
2024-01-28T18:58:31.790Z,7.90
2024-01-28T19:01:01.669Z,7.90
2024-01-28T19:03:29.068Z,7.90
2024-01-28T19:05:56.648Z,7.90
2024-01-28T19:08:24.559Z,7.90
2024-01-28T19:10:54.550Z,7.90
2024-01-28T19:13:21.747Z,7.90
2024-01-28T19:15:49.058Z,7.90
2024-01-28T19:18:16.847Z,7.90
2024-01-28T19:20:44.205Z,7.90
2024-01-28T19:23:11.365Z,7.90
2024-01-28T19:25:39.289Z,7.90
2024-01-28T19:28:06.732Z,7.90
2024-01-28T19:30:34.189Z,7.90
2024-01-28T19:33:01.367Z,7.80
2024-01-28T19:35:28.567Z,7.80
2024-01-28T19:37:55.786Z,7.80
2024-01-28T19:40:24.117Z,7.70
2024-01-28T19:42:52.072Z,7.70
2024-01-28T19:45:19.155Z,7.70
2024-01-28T19:47:46.334Z,7.60
2024-01-28T19:50:14.110Z,7.60
2024-01-28T19:52:41.447Z,7.60
2024-01-28T19:55:08.857Z,7.50
2024-01-28T19:57:36.068Z,7.50
2024-01-28T20:00:03.194Z,7.50
2024-01-28T20:02:30.244Z,7.40
2024-01-28T20:04:57.430Z,7.40
2024-01-28T20:07:25.884Z,7.40
2024-01-28T20:10:00.003Z,7.40
2024-01-28T20:12:28.418Z,7.40
2024-01-28T20:14:55.613Z,7.30
2024-01-28T20:17:22.692Z,7.30
2024-01-28T20:19:49.923Z,7.30
2024-01-28T20:22:17.058Z,7.30
2024-01-28T20:24:44.595Z,7.30
2024-01-28T20:27:11.670Z,7.20
2024-01-28T20:29:42.692Z,7.20
2024-01-28T20:32:09.899Z,7.20
2024-01-28T20:34:37.196Z,7.10
2024-01-28T20:37:04.529Z,7.10
2024-01-28T20:39:32.546Z,7.10
2024-01-28T20:41:59.772Z,7.10
2024-01-28T20:44:28.152Z,7.00
2024-01-28T20:46:55.297Z,7.00
2024-01-28T20:49:22.468Z,7.00
2024-01-28T20:51:49.805Z,6.90
2024-01-28T20:54:16.988Z,6.90
2024-01-28T20:56:46.793Z,6.80
2024-01-28T20:59:14.514Z,6.80
2024-01-28T21:01:44.550Z,6.80
2024-01-28T21:04:11.923Z,6.70
2024-01-28T21:06:39.060Z,6.70
2024-01-28T21:09:06.117Z,6.70
2024-01-28T21:11:33.150Z,6.70
2024-01-28T21:14:00.513Z,6.60
2024-01-28T21:16:29.885Z,6.60
2024-01-28T21:18:57.052Z,6.60
2024-01-28T21:21:24.470Z,6.50
2024-01-28T21:23:51.750Z,6.50
2024-01-28T21:26:18.825Z,6.50
2024-01-28T21:28:45.928Z,6.50
2024-01-28T21:31:14.415Z,6.40
2024-01-28T21:33:41.519Z,6.40
2024-01-28T21:36:08.943Z,6.40
2024-01-28T21:38:36.010Z,6.40
2024-01-28T21:41:03.794Z,6.40
2024-01-28T21:43:30.816Z,6.40
2024-01-28T21:45:57.948Z,6.40
2024-01-28T21:48:25.404Z,6.40
2024-01-28T21:50:53.051Z,6.40
2024-01-28T21:53:20.111Z,6.40
2024-01-28T21:55:47.231Z,6.40
2024-01-28T21:58:14.347Z,6.40
2024-01-28T22:00:41.574Z,6.30
2024-01-28T22:03:08.604Z,6.30
2024-01-28T22:05:35.659Z,6.30
2024-01-28T22:08:03.900Z,6.30
2024-01-28T22:10:31.102Z,6.30
2024-01-28T22:12:58.165Z,6.30
2024-01-28T22:15:25.396Z,6.20
2024-01-28T22:17:52.705Z,6.20
2024-01-28T22:20:19.893Z,6.20
2024-01-28T22:22:47.659Z,6.20
2024-01-28T22:25:14.905Z,6.20
2024-01-28T22:27:42.029Z,6.20
2024-01-28T22:30:09.467Z,6.10
2024-01-28T22:32:36.514Z,6.10
2024-01-28T22:35:04.037Z,6.10
2024-01-28T22:37:31.252Z,6.10
2024-01-28T22:39:58.616Z,6.10
2024-01-28T22:42:25.941Z,6.10
2024-01-28T22:44:52.999Z,6.10
2024-01-28T22:47:20.275Z,6.10
2024-01-28T22:49:47.665Z,6.10
2024-01-28T22:52:14.989Z,6.10
2024-01-28T22:54:42.103Z,6.10
2024-01-28T22:57:11.327Z,6.10
2024-01-28T22:59:38.737Z,6.00
2024-01-28T23:02:07.782Z,6.00
2024-01-28T23:04:37.322Z,6.00
2024-01-28T23:07:05.499Z,6.00
2024-01-28T23:09:32.564Z,5.90
2024-01-28T23:11:59.622Z,5.90
2024-01-28T23:14:26.683Z,5.90
2024-01-28T23:16:56.061Z,5.90
2024-01-28T23:19:23.089Z,5.80
2024-01-28T23:21:50.171Z,5.80
2024-01-28T23:24:17.308Z,5.70
2024-01-28T23:26:44.393Z,5.70
2024-01-28T23:29:11.810Z,5.70
2024-01-28T23:31:43.098Z,5.70
2024-01-28T23:34:13.766Z,5.70
2024-01-28T23:36:41.012Z,5.70
2024-01-28T23:39:09.554Z,5.70
2024-01-28T23:41:38.611Z,5.80
2024-01-28T23:44:06.060Z,5.70
2024-01-28T23:46:33.523Z,5.70
2024-01-28T23:49:01.023Z,5.70
2024-01-28T23:51:31.764Z,5.70
2024-01-28T23:53:58.911Z,5.70
2024-01-28T23:56:25.909Z,5.70
2024-01-28T23:58:52.967Z,5.70
